• Join FlightAware (Why Join?)
  • Login
  • US Flag 
02:59AM EDT


 

Airport Tracker/Info


-or-


 

Live Flight TrackerFlight Track Log ✈ EGF3165 ✈ 08-Oct-2013 ✈ KORD - KSAW

Flight Track Log - Related Links

Times and Time Zones

All times are in EDT time to prevent confusion due to time zone crossing. See the EGF3165 flight status page for this flight to view local times or setup timezone preferences in your user account.

Time Position Orientation Groundspeed Altitude Reporting Facility
EDT Latitude Longitude Course Direction KTS MPH feet Rate Location/Type
09:10PM 41.9833 -87.8667 346° North 162 186 1,800  Level Chicago TRACON
09:12PM 41.9911 -87.7603 84° East 250 288 5,100 2,460 Climbing Chicago Center
09:13PM 42.3800 -87.8631 346° North  Level Estimated
09:13PM 42.0658 -87.7542 North 277 319 8,200  Level Chicago Center
09:14PM 42.4666 -87.9307 330° Northwest  Level FlightAware Approximate
09:14PM 42.1636 -87.7569 359° North 295 339 10,600  Level Chicago Center
09:15PM 42.5661 -87.9179 346° North  Level Estimated
09:15PM 42.2536 -87.7614 358° North 326 375 11,700  Level Chicago Center
09:16PM 42.3483 -87.7669 358° North 354 407 13,100 1,380 Climbing Chicago Center
09:17PM 42.4500 -87.7731 357° North 363 418 14,600 1,560 Climbing Chicago Center
09:18PM 42.5731 -87.7642 North 368 423 16,300 1,500 Climbing Chicago Center
09:19PM 42.6764 -87.7494 North 372 428 17,800 1,320 Climbing Chicago Center
09:20PM 42.7806 -87.7411 North 375 432 19,100 1,320 Climbing Chicago Center
09:21PM 42.8864 -87.7308 North 381 438 20,600 1,440 Climbing Chicago Center
09:22PM 42.9942 -87.7219 North 388 447 22,100 1,380 Climbing Chicago Center
09:23PM 43.1025 -87.7117 North 392 451 23,500 1,200 Climbing Chicago Center
09:24PM 43.2344 -87.6992 North 398 458 24,700 1,020 Climbing Chicago Center
09:25PM 43.3486 -87.6889 North 408 470 25,700 900 Climbing Chicago Center
09:26PM 43.4636 -87.6781 North 413 475 26,600 900 Climbing Chicago Center
09:27PM 43.5778 -87.6672 North 414 476 27,600 960 Climbing Chicago Center
09:28PM 43.6925 -87.6575 North 415 478 28,600 660 Climbing Chicago Center
09:29PM 43.8322 -87.6444 North 421 484 29,000 180 Climbing Chicago Center
09:30PM 43.9539 -87.6339 North 436 502 29,000  Level Chicago Center
09:31PM 44.0792 -87.6217 North 449 517 29,000  Level Chicago Center
09:32PM 44.2072 -87.6086 North 460 529 29,000  Level Chicago Center
09:33PM 44.3369 -87.5972 North 466 536 29,000  Level Chicago Center
09:34PM 44.4694 -87.5844 North 458 527 29,000  Level Chicago Center
09:35PM 44.5944 -87.5733 North 452 520 29,000  Level Chicago Center
09:36PM 44.7181 -87.5597 North 446 513 29,000  Level Chicago Center
09:38PM 44.8908 -87.5433 North 445 512 29,000  Level Minneapolis Center
09:39PM 45.0133 -87.5294 North 444 511 29,000 -1,020 Level Minneapolis Center
09:40PM 45.1378 -87.5169 North 445 512 26,900 -2,700 Descending Minneapolis Center
09:41PM 45.2881 -87.5028 North 451 519 23,500 -3,060 Descending Minneapolis Center
09:42PM 45.4131 -87.4894 North 449 517 20,700 -2,700 Descending Minneapolis Center
09:43PM 45.5292 -87.4761 North 426 490 18,100 -2,520 Descending Minneapolis Center
09:44PM 45.6444 -87.4656 North 409 471 15,600 -2,400 Descending Minneapolis Center
09:45PM 45.7572 -87.4514 North 400 460 13,300 -1,920 Descending Minneapolis Center
09:46PM 45.8644 -87.4331 North 382 440 11,800 -1,080 Descending Minneapolis Center
09:47PM 45.9608 -87.4169 North 342 394 11,200 -1,140 Descending Minneapolis Center
09:48PM 46.0431 -87.3997 North 295 339 9,500 -1,920 Descending Minneapolis Center
09:49PM 46.1261 -87.3769 11° North 300 345 7,300 -2,040 Descending Minneapolis Center
09:50PM 46.2058 -87.3581 North 286 329 5,400 -1,860 Descending Minneapolis Center
09:51PM 46.2861 -87.3525 North 284 327 3,600 -1,320 Descending Minneapolis Center
09:52PM 46.3644 -87.3356 North 263 303 2,800 -600 Descending Minneapolis Center
09:53PM 46.4142 -87.3508 348° North 184 212 2,400 -540 Descending Minneapolis Center
09:54PM 46.3944 -87.3853 230° Southwest 125 144 1,800 -600 Descending Minneapolis Center